Time;durP1;ratioP1;P1;durP2;ratioP2;P2;SDS_P1;SDS_P2;PMS_P1;PMS_P2;Temp;Humidity;BMP_temperature;BMP_pressure;BME280_temperature;BME280_humidity;BME280_pressure;Samples;Min_cycle;Max_cycle;Signal;HPM_P1;HPM_P2
2022/05/29 00:01:32;;;;;;;13.57;2.78;;;;;;;;;;5060812;28;20043;-66
2022/05/29 00:03:58;;;;;;;25.77;3.20;;;;;;;;;;5058307;28;20044;-66
2022/05/29 00:06:24;;;;;;;14.98;2.75;;;;;;;;;;5080431;28;20464;-66
2022/05/29 00:08:50;;;;;;;17.55;3.17;;;;;;;;;;5082829;28;20071;-66
2022/05/29 00:11:16;;;;;;;15.82;2.85;;;;;;;;;;5078274;28;20061;-66
2022/05/29 00:13:44;;;;;;;12.88;2.70;;;;;;;;;;5080956;28;20401;-66
2022/05/29 00:16:11;;;;;;;11.65;2.53;;;;;;;;;;5062962;28;20131;-66
2022/05/29 00:18:38;;;;;;;15.65;3.20;;;;;;;;;;5064575;28;20043;-66
2022/05/29 00:21:05;;;;;;;16.08;3.38;;;;;;;;;;5059456;28;20043;-66
2022/05/29 00:23:32;;;;;;;14.95;3.05;;;;;;;;;;5075607;28;20050;-66
2022/05/29 00:25:59;;;;;;;18.40;3.08;;;;;;;;;;5073173;28;20062;-66
2022/05/29 00:28:25;;;;;;;15.45;4.13;;;;;;;;;;5075010;28;20137;-66
2022/05/29 00:30:51;;;;;;;14.95;3.47;;;;;;;;;;5058724;28;20040;-66
2022/05/29 00:33:17;;;;;;;24.23;3.67;;;;;;;;;;5078373;28;20036;-66
2022/05/29 00:35:43;;;;;;;15.15;3.50;;;;;;;;;;5061683;28;20174;-66
2022/05/29 00:38:11;;;;;;;18.25;3.22;;;;;;;;;;5081074;28;20031;-66
2022/05/29 00:40:44;;;;;;;15.00;3.58;;;;;;;;;;5084904;28;20095;-66
2022/05/29 00:43:10;;;;;;;14.77;3.92;;;;;;;;;;5080065;28;20058;-66
2022/05/29 00:45:46;;;;;;;13.30;3.35;;;;;;;;;;5097183;28;20060;-66
2022/05/29 00:48:14;;;;;;;12.32;2.75;;;;;;;;;;5114481;27;20062;-66
2022/05/29 00:50:41;;;;;;;15.57;3.72;;;;;;;;;;5093806;28;20169;-66
2022/05/29 00:53:07;;;;;;;13.63;3.90;;;;;;;;;;5097495;28;20047;-66
2022/05/29 00:55:33;;;;;;;12.15;2.90;;;;;;;;;;5098050;28;20047;-66
2022/05/29 00:58:02;;;;;;;20.20;3.97;;;;;;;;;;5097682;28;20047;-66
2022/05/29 01:00:29;;;;;;;15.55;4.25;;;;;;;;;;5100633;28;20032;-66
2022/05/29 01:02:56;;;;;;;12.32;3.38;;;;;;;;;;5102845;28;20044;-66
2022/05/29 01:05:24;;;;;;;13.45;3.08;;;;;;;;;;5101140;28;20063;-66
2022/05/29 01:07:54;;;;;;;15.45;3.22;;;;;;;;;;5102586;28;20380;-66
2022/05/29 01:10:20;;;;;;;12.57;2.95;;;;;;;;;;5101161;28;20058;-66
2022/05/29 01:12:59;;;;;;;16.38;3.15;;;;;;;;;;5100766;28;20038;-66
2022/05/29 01:15:25;;;;;;;15.27;4.13;;;;;;;;;;5097361;28;20044;-66
2022/05/29 01:17:52;;;;;;;13.48;3.47;;;;;;;;;;5099765;28;20039;-66
2022/05/29 01:20:29;;;;;;;17.65;3.30;;;;;;;;;;5100344;28;20513;-66
2022/05/29 01:23:13;;;;;;;17.05;3.22;;;;;;;;;;5096612;28;20047;-66
2022/05/29 01:25:40;;;;;;;16.45;3.90;;;;;;;;;;5102442;28;20491;-66
2022/05/29 01:28:12;;;;;;;12.02;3.42;;;;;;;;;;5098712;28;20093;-66
2022/05/29 01:30:44;;;;;;;21.23;4.22;;;;;;;;;;5099516;28;20078;-66
2022/05/29 01:33:22;;;;;;;19.02;3.75;;;;;;;;;;5097968;28;20047;-66
2022/05/29 01:35:55;;;;;;;15.50;3.67;;;;;;;;;;5096976;28;20131;-66
2022/05/29 01:38:26;;;;;;;10.98;3.03;;;;;;;;;;5099268;28;20036;-66
2022/05/29 01:40:55;;;;;;;14.60;3.05;;;;;;;;;;5099067;28;20071;-66
2022/05/29 01:43:24;;;;;;;14.43;2.90;;;;;;;;;;5088845;28;20131;-66
2022/05/29 01:45:54;;;;;;;13.98;3.13;;;;;;;;;;5063400;28;20130;-66
2022/05/29 01:48:30;;;;;;;11.27;2.90;;;;;;;;;;5058717;28;20131;-66
2022/05/29 01:50:59;;;;;;;11.98;2.78;;;;;;;;;;5055724;28;20147;-66
2022/05/29 01:53:33;;;;;;;19.92;3.47;;;;;;;;;;5084916;28;20096;-66
2022/05/29 01:56:02;;;;;;;21.15;5.05;;;;;;;;;;5081125;28;20456;-66
2022/05/29 01:58:36;;;;;;;12.13;3.25;;;;;;;;;;5082586;28;20044;-66
2022/05/29 02:01:05;;;;;;;17.55;3.67;;;;;;;;;;5067514;28;20044;-66
2022/05/29 02:03:34;;;;;;;14.70;3.83;;;;;;;;;;5065609;28;20046;-66
2022/05/29 02:06:06;;;;;;;12.52;4.00;;;;;;;;;;5084802;28;20135;-66
2022/05/29 02:08:44;;;;;;;13.65;3.15;;;;;;;;;;5085962;28;20097;-66
2022/05/29 02:11:14;;;;;;;13.63;3.80;;;;;;;;;;5083378;28;20139;-66
2022/05/29 02:13:44;;;;;;;14.10;3.15;;;;;;;;;;5067434;28;20047;-66
2022/05/29 02:16:16;;;;;;;15.93;3.38;;;;;;;;;;5069154;28;20052;-66
2022/05/29 02:18:47;;;;;;;12.77;2.60;;;;;;;;;;5068506;28;20048;-66
2022/05/29 02:21:17;;;;;;;12.90;2.72;;;;;;;;;;5089798;28;20048;-66
2022/05/29 02:23:46;;;;;;;10.18;2.53;;;;;;;;;;5065461;28;20253;-66
2022/05/29 02:26:15;;;;;;;7.28;1.80;;;;;;;;;;5082520;28;20076;-66
2022/05/29 02:28:42;;;;;;;7.07;1.50;;;;;;;;;;5083325;28;20041;-66
2022/05/29 02:31:27;;;;;;;8.73;1.75;;;;;;;;;;5083438;28;20048;-65
2022/05/29 02:34:00;;;;;;;6.22;1.98;;;;;;;;;;5076535;28;20193;-66
2022/05/29 02:36:34;;;;;;;8.27;1.85;;;;;;;;;;5078222;28;20040;-66
2022/05/29 02:39:15;;;;;;;13.10;3.13;;;;;;;;;;5078705;28;20048;-66
2022/05/29 02:41:46;;;;;;;9.85;2.78;;;;;;;;;;5081110;28;20055;-67
2022/05/29 02:44:17;;;;;;;9.95;2.50;;;;;;;;;;5081100;28;20055;-66
2022/05/29 02:46:50;;;;;;;9.45;3.00;;;;;;;;;;5060391;28;20116;-66
2022/05/29 02:49:16;;;;;;;10.52;2.17;;;;;;;;;;5079926;28;20044;-66
2022/05/29 02:51:55;;;;;;;21.40;3.30;;;;;;;;;;5082000;28;20093;-66
2022/05/29 02:54:25;;;;;;;10.50;2.63;;;;;;;;;;5045746;28;20138;-66
2022/05/29 02:56:52;;;;;;;13.77;2.47;;;;;;;;;;5082336;28;20040;-66
2022/05/29 02:59:19;;;;;;;15.93;3.22;;;;;;;;;;5084950;28;20055;-66
2022/05/29 03:01:54;;;;;;;14.43;3.03;;;;;;;;;;5084863;28;20044;-66
2022/05/29 03:04:32;;;;;;;21.42;3.20;;;;;;;;;;5081133;28;20044;-66
2022/05/29 03:07:04;;;;;;;12.95;2.88;;;;;;;;;;5062547;28;20056;-66
2022/05/29 03:09:35;;;;;;;10.05;3.20;;;;;;;;;;5082467;28;20158;-66
2022/05/29 03:12:03;;;;;;;14.45;3.10;;;;;;;;;;5065445;28;20074;-66
2022/05/29 03:14:30;;;;;;;11.48;2.95;;;;;;;;;;5083399;28;20056;-66
2022/05/29 03:17:09;;;;;;;16.70;2.95;;;;;;;;;;5066476;28;20403;-66
2022/05/29 03:19:41;;;;;;;19.95;3.83;;;;;;;;;;5066790;28;20131;-66
2022/05/29 03:22:16;;;;;;;18.48;2.90;;;;;;;;;;5084789;28;20063;-66
2022/05/29 03:24:45;;;;;;;16.45;2.70;;;;;;;;;;5060230;28;20036;-66
2022/05/29 03:27:15;;;;;;;15.32;2.67;;;;;;;;;;5061005;28;20052;-66
2022/05/29 03:29:46;;;;;;;19.48;3.75;;;;;;;;;;5081957;28;20169;-66
2022/05/29 03:32:12;;;;;;;16.10;3.47;;;;;;;;;;5082064;28;20058;-66
2022/05/29 03:34:38;;;;;;;16.98;2.67;;;;;;;;;;5084880;28;20043;-66
2022/05/29 03:37:06;;;;;;;18.65;4.57;;;;;;;;;;5082487;28;20166;-66
2022/05/29 03:39:32;;;;;;;14.93;3.60;;;;;;;;;;5074766;28;20404;-66
2022/05/29 03:41:58;;;;;;;12.88;2.40;;;;;;;;;;5078430;28;20050;-66
2022/05/29 03:44:25;;;;;;;9.40;2.90;;;;;;;;;;5078388;28;20044;-66
2022/05/29 03:46:52;;;;;;;18.63;3.50;;;;;;;;;;5083871;28;20083;-66
2022/05/29 03:49:20;;;;;;;14.95;3.03;;;;;;;;;;5079920;28;20129;-66
2022/05/29 03:51:46;;;;;;;14.25;3.03;;;;;;;;;;5077699;28;20112;-66
2022/05/29 03:54:13;;;;;;;22.88;3.78;;;;;;;;;;5073374;28;20048;-66
2022/05/29 03:56:39;;;;;;;18.40;4.30;;;;;;;;;;5064664;28;20105;-66
2022/05/29 03:59:06;;;;;;;18.63;3.50;;;;;;;;;;5059500;28;20127;-67
2022/05/29 04:01:32;;;;;;;22.38;2.95;;;;;;;;;;5059428;28;20398;-66
2022/05/29 04:03:59;;;;;;;16.77;2.40;;;;;;;;;;5075072;28;20048;-66
2022/05/29 04:06:27;;;;;;;11.95;3.03;;;;;;;;;;5076612;28;20402;-66
2022/05/29 04:14:25;;;;;;;14.23;2.67;;;;;;;;;;5058346;28;20044;-66
2022/05/29 04:16:52;;;;;;;8.70;2.15;;;;;;;;;;5081087;28;20040;-66
2022/05/29 04:19:19;;;;;;;11.75;2.17;;;;;;;;;;5083595;28;20478;-66
2022/05/29 04:21:46;;;;;;;15.20;2.65;;;;;;;;;;5066604;28;20123;-66
2022/05/29 04:24:12;;;;;;;14.23;2.95;;;;;;;;;;5080419;28;20044;-66
2022/05/29 04:26:38;;;;;;;14.13;2.83;;;;;;;;;;5084234;28;20040;-66
2022/05/29 04:29:05;;;;;;;18.23;3.50;;;;;;;;;;5082362;28;20050;-66
2022/05/29 04:31:32;;;;;;;15.77;3.05;;;;;;;;;;5057699;28;20106;-66
2022/05/29 04:33:58;;;;;;;17.55;3.05;;;;;;;;;;5058701;28;20134;-66
2022/05/29 04:36:25;;;;;;;16.00;2.92;;;;;;;;;;5068157;28;20043;-66
2022/05/29 04:38:52;;;;;;;18.13;2.85;;;;;;;;;;5055262;28;20131;-66
2022/05/29 04:41:24;;;;;;;17.92;3.55;;;;;;;;;;5073741;28;20101;-66
2022/05/29 04:43:51;;;;;;;23.77;4.00;;;;;;;;;;5103891;27;20086;-66
2022/05/29 04:46:17;;;;;;;16.95;3.85;;;;;;;;;;5096397;28;20051;-66
2022/05/29 04:48:43;;;;;;;19.15;3.28;;;;;;;;;;5097905;28;20159;-66
2022/05/29 04:51:09;;;;;;;13.85;2.83;;;;;;;;;;5094860;28;20149;-66
2022/05/29 04:53:36;;;;;;;13.23;3.50;;;;;;;;;;5100922;28;20066;-66
2022/05/29 04:56:02;;;;;;;20.58;3.08;;;;;;;;;;5095637;28;20101;-66
2022/05/29 04:58:29;;;;;;;21.77;3.25;;;;;;;;;;5104072;28;20396;-66
2022/05/29 05:00:57;;;;;;;16.08;2.33;;;;;;;;;;5100049;28;20148;-66
2022/05/29 05:03:24;;;;;;;14.85;2.50;;;;;;;;;;5103970;28;20057;-66
2022/05/29 05:05:50;;;;;;;15.48;2.70;;;;;;;;;;5099993;28;20059;-66
2022/05/29 05:08:16;;;;;;;16.48;2.97;;;;;;;;;;5097921;28;20039;-66
2022/05/29 05:10:43;;;;;;;22.30;3.22;;;;;;;;;;5099397;28;20039;-66
2022/05/29 05:13:09;;;;;;;24.10;4.25;;;;;;;;;;5097363;28;20054;-66
2022/05/29 05:15:35;;;;;;;13.07;2.53;;;;;;;;;;5101324;28;20047;-66
2022/05/29 05:18:02;;;;;;;19.27;3.28;;;;;;;;;;5103671;28;20089;-66
2022/05/29 05:20:30;;;;;;;17.45;2.65;;;;;;;;;;5099657;28;20065;-66
2022/05/29 05:22:56;;;;;;;19.15;3.67;;;;;;;;;;5103410;28;20063;-66
2022/05/29 05:25:22;;;;;;;16.20;2.97;;;;;;;;;;5100664;28;20052;-66
2022/05/29 05:27:49;;;;;;;16.75;3.78;;;;;;;;;;5102299;28;20505;-66
2022/05/29 05:30:15;;;;;;;17.08;2.83;;;;;;;;;;5106388;28;20036;-66
2022/05/29 05:32:42;;;;;;;15.55;2.70;;;;;;;;;;5102704;28;20067;-66
2022/05/29 05:35:08;;;;;;;16.05;3.10;;;;;;;;;;5102245;28;20051;-66
2022/05/29 05:37:36;;;;;;;13.63;3.13;;;;;;;;;;5098115;28;20399;-66
2022/05/29 05:40:03;;;;;;;18.95;3.25;;;;;;;;;;5103830;28;20048;-66
2022/05/29 05:42:29;;;;;;;16.15;3.00;;;;;;;;;;5102262;28;20063;-66
2022/05/29 05:44:57;;;;;;;17.10;3.85;;;;;;;;;;5095763;28;20095;-66
2022/05/29 05:47:24;;;;;;;15.88;3.13;;;;;;;;;;5099690;28;20051;-66
2022/05/29 05:49:50;;;;;;;19.02;3.65;;;;;;;;;;5093397;28;20526;-66
2022/05/29 05:52:17;;;;;;;11.07;2.65;;;;;;;;;;5102634;28;20047;-66
2022/05/29 05:54:43;;;;;;;14.48;3.33;;;;;;;;;;5096686;28;20040;-66
2022/05/29 05:57:10;;;;;;;16.95;3.15;;;;;;;;;;5097814;28;20043;-66
2022/05/29 05:59:37;;;;;;;12.25;2.33;;;;;;;;;;5100167;28;20398;-66
2022/05/29 06:02:03;;;;;;;14.85;3.10;;;;;;;;;;5098592;28;20046;-66
2022/05/29 06:04:29;;;;;;;14.27;3.10;;;;;;;;;;5101935;28;20079;-66
2022/05/29 06:06:55;;;;;;;13.70;2.60;;;;;;;;;;5078439;28;20066;-66
2022/05/29 06:09:23;;;;;;;14.25;2.75;;;;;;;;;;5101221;28;20363;-66
2022/05/29 06:11:49;;;;;;;17.77;2.65;;;;;;;;;;5100509;28;20463;-66
2022/05/29 06:14:15;;;;;;;13.25;2.47;;;;;;;;;;5103133;28;20051;-66
2022/05/29 06:16:41;;;;;;;20.83;2.72;;;;;;;;;;5098374;28;20058;-66
2022/05/29 06:19:08;;;;;;;11.52;2.60;;;;;;;;;;5098479;28;20043;-66
2022/05/29 06:21:34;;;;;;;12.65;2.67;;;;;;;;;;5101436;28;20436;-66
2022/05/29 06:24:00;;;;;;;16.30;3.35;;;;;;;;;;5099443;28;20127;-66
2022/05/29 06:26:26;;;;;;;9.77;2.10;;;;;;;;;;5098019;28;20039;-66
2022/05/29 06:28:53;;;;;;;12.63;1.80;;;;;;;;;;5080862;28;20131;-66
2022/05/29 06:31:19;;;;;;;8.40;1.55;;;;;;;;;;5099313;28;20137;-66
2022/05/29 06:33:45;;;;;;;16.60;2.38;;;;;;;;;;5099777;28;20043;-66
2022/05/29 06:36:12;;;;;;;11.57;2.30;;;;;;;;;;5106245;28;20074;-66
2022/05/29 06:38:39;;;;;;;14.88;2.47;;;;;;;;;;5104814;28;20040;-66
2022/05/29 06:41:06;;;;;;;15.57;2.60;;;;;;;;;;5105314;28;20058;-66
2022/05/29 06:43:33;;;;;;;15.98;2.40;;;;;;;;;;5092504;28;20062;-66
2022/05/29 06:46:00;;;;;;;13.30;2.63;;;;;;;;;;5082188;28;20036;-66
2022/05/29 06:48:26;;;;;;;15.63;2.28;;;;;;;;;;5068805;28;20062;-66
2022/05/29 06:50:52;;;;;;;11.73;2.70;;;;;;;;;;5085590;28;20036;-65
2022/05/29 06:53:19;;;;;;;9.30;2.17;;;;;;;;;;5068809;28;20044;-66
2022/05/29 06:55:51;;;;;;;13.57;2.42;;;;;;;;;;5084765;28;20090;-66
2022/05/29 06:58:17;;;;;;;16.83;2.70;;;;;;;;;;5066449;28;20044;-66
2022/05/29 07:08:57;;;;;;;11.30;2.47;;;;;;;;;;5070117;28;20047;-66
2022/05/29 07:11:25;;;;;;;9.68;2.00;;;;;;;;;;5067405;28;20127;-65
2022/05/29 07:13:51;;;;;;;13.20;2.05;;;;;;;;;;5081442;28;20048;-65
2022/05/29 07:16:17;;;;;;;15.70;2.50;;;;;;;;;;5084595;28;20051;-65
2022/05/29 07:18:44;;;;;;;15.77;2.65;;;;;;;;;;5054577;28;20094;-65
2022/05/29 07:21:10;;;;;;;13.52;2.38;;;;;;;;;;5062023;28;20165;-65
2022/05/29 07:23:37;;;;;;;12.27;2.00;;;;;;;;;;5089292;28;20407;-65
2022/05/29 07:26:04;;;;;;;16.67;2.72;;;;;;;;;;5087369;28;20079;-65
2022/05/29 07:28:30;;;;;;;14.38;2.60;;;;;;;;;;5083775;28;20135;-64
2022/05/29 07:30:56;;;;;;;12.77;2.45;;;;;;;;;;5085537;28;20044;-65
2022/05/29 07:33:25;;;;;;;11.32;1.90;;;;;;;;;;5086088;28;20044;-65
2022/05/29 07:35:51;;;;;;;12.88;2.30;;;;;;;;;;5088272;28;20055;-66
2022/05/29 07:38:17;;;;;;;11.30;1.60;;;;;;;;;;5067459;28;20040;-65
2022/05/29 07:40:44;;;;;;;8.90;1.52;;;;;;;;;;5077994;28;20045;-65
2022/05/29 07:43:19;;;;;;;11.45;1.80;;;;;;;;;;5080338;28;20048;-65
2022/05/29 07:45:50;;;;;;;12.82;2.05;;;;;;;;;;5087390;28;20056;-64
2022/05/29 07:48:17;;;;;;;7.30;1.75;;;;;;;;;;5077708;28;20048;-65
2022/05/29 07:50:44;;;;;;;8.55;1.40;;;;;;;;;;5064135;28;20067;-65
2022/05/29 07:53:10;;;;;;;14.35;1.83;;;;;;;;;;5063716;28;20508;-65
2022/05/29 07:55:37;;;;;;;12.70;1.45;;;;;;;;;;5082532;28;20052;-65
2022/05/29 07:58:04;;;;;;;6.90;1.27;;;;;;;;;;5080653;28;20111;-65
2022/05/29 08:00:30;;;;;;;6.03;1.58;;;;;;;;;;5080425;28;20040;-67
2022/05/29 08:02:56;;;;;;;8.90;1.50;;;;;;;;;;5060068;28;20062;-65
2022/05/29 08:05:22;;;;;;;9.95;1.65;;;;;;;;;;5079983;28;20098;-65
2022/05/29 08:07:50;;;;;;;8.85;1.52;;;;;;;;;;5084582;28;20075;-65
2022/05/29 08:10:18;;;;;;;7.28;1.20;;;;;;;;;;5069389;28;20119;-65
2022/05/29 08:12:44;;;;;;;11.40;1.85;;;;;;;;;;5081916;28;20043;-65
2022/05/29 08:15:11;;;;;;;13.32;2.20;;;;;;;;;;5068732;28;20562;-65
2022/05/29 08:17:37;;;;;;;12.60;2.00;;;;;;;;;;5078306;28;20052;-65
2022/05/29 08:20:04;;;;;;;14.32;1.70;;;;;;;;;;5067570;28;20044;-65
2022/05/29 08:22:30;;;;;;;11.57;2.47;;;;;;;;;;5074916;28;20037;-65
2022/05/29 08:30:37;;;;;;;15.48;2.42;;;;;;;;;;5075616;28;20112;-65
2022/05/29 08:33:05;;;;;;;11.52;1.98;;;;;;;;;;5058805;28;20062;-65
2022/05/29 08:35:31;;;;;;;12.48;2.15;;;;;;;;;;5063829;28;20117;-65
2022/05/29 08:37:58;;;;;;;15.32;2.22;;;;;;;;;;5079431;28;20028;-65
2022/05/29 08:40:24;;;;;;;11.90;2.25;;;;;;;;;;5067572;28;20051;-65
2022/05/29 08:42:50;;;;;;;11.40;1.92;;;;;;;;;;5084084;28;20052;-65
2022/05/29 08:45:18;;;;;;;14.75;1.92;;;;;;;;;;5055899;28;20114;-66
2022/05/29 08:47:46;;;;;;;16.02;2.20;;;;;;;;;;5062184;28;20395;-66
2022/05/29 08:50:17;;;;;;;21.02;3.05;;;;;;;;;;5081777;28;20109;-65
2022/05/29 08:52:47;;;;;;;11.60;2.22;;;;;;;;;;5081345;28;20069;-65
2022/05/29 08:55:14;;;;;;;15.45;2.10;;;;;;;;;;5085237;28;20052;-65
2022/05/29 08:57:59;;;;;;;12.40;2.03;;;;;;;;;;5065655;28;20047;-66
2022/05/29 09:00:30;;;;;;;9.52;1.95;;;;;;;;;;5063653;28;20131;-65
2022/05/29 09:03:23;;;;;;;11.75;2.45;;;;;;;;;;5083077;28;20552;-65
2022/05/29 09:05:52;;;;;;;12.70;1.83;;;;;;;;;;5082281;28;20106;-71
2022/05/29 09:08:22;;;;;;;8.98;1.77;;;;;;;;;;5084693;28;20047;-65
2022/05/29 09:10:52;;;;;;;9.73;2.45;;;;;;;;;;5059906;28;20388;-65
2022/05/29 09:13:27;;;;;;;13.00;2.45;;;;;;;;;;5076889;28;20048;-66
2022/05/29 09:15:57;;;;;;;10.77;1.70;;;;;;;;;;5078041;28;20913;-65
2022/05/29 09:18:24;;;;;;;7.10;1.70;;;;;;;;;;5077467;28;20078;-65
2022/05/29 09:20:53;;;;;;;10.27;1.58;;;;;;;;;;5075806;28;20052;-65
2022/05/29 09:23:28;;;;;;;11.02;2.08;;;;;;;;;;5078623;28;20134;-65
2022/05/29 09:25:55;;;;;;;9.30;1.50;;;;;;;;;;5065834;28;20052;-65
2022/05/29 09:28:26;;;;;;;11.30;1.67;;;;;;;;;;5080851;28;20036;-65
2022/05/29 09:30:53;;;;;;;9.30;1.75;;;;;;;;;;5079750;28;20045;-65
2022/05/29 09:33:24;;;;;;;11.18;2.03;;;;;;;;;;5082098;28;20179;-65
2022/05/29 09:35:53;;;;;;;9.25;1.70;;;;;;;;;;5065384;28;20553;-65
2022/05/29 09:38:27;;;;;;;10.93;2.25;;;;;;;;;;5084201;28;20055;-65
2022/05/29 09:40:59;;;;;;;8.80;1.67;;;;;;;;;;5063495;28;20040;-72
2022/05/29 09:43:27;;;;;;;10.88;1.95;;;;;;;;;;5078583;28;20047;-72
2022/05/29 09:45:53;;;;;;;5.57;1.10;;;;;;;;;;5097126;28;20052;-65
2022/05/29 09:51:08;;;;;;;9.90;1.90;;;;;;;;;;5096093;28;20105;-66
2022/05/29 09:53:35;;;;;;;12.40;1.90;;;;;;;;;;5103787;28;20043;-65
2022/05/29 09:56:05;;;;;;;7.75;1.55;;;;;;;;;;5080957;28;20043;-67
2022/05/29 09:58:40;;;;;;;9.93;1.60;;;;;;;;;;5099280;28;20036;-66
2022/05/29 10:01:07;;;;;;;5.10;1.23;;;;;;;;;;5099259;28;20050;-65
2022/05/29 10:03:39;;;;;;;9.60;1.95;;;;;;;;;;5101284;28;20051;-65
2022/05/29 10:06:18;;;;;;;17.88;1.92;;;;;;;;;;5087984;28;20378;-65
2022/05/29 10:08:45;;;;;;;11.65;2.08;;;;;;;;;;5098144;28;20036;-65
2022/05/29 10:11:14;;;;;;;8.48;1.95;;;;;;;;;;5102662;28;20046;-65
2022/05/29 10:13:41;;;;;;;10.55;1.83;;;;;;;;;;5102516;28;20138;-65
2022/05/29 10:16:08;;;;;;;15.23;2.22;;;;;;;;;;5099283;28;20093;-65
2022/05/29 10:18:36;;;;;;;12.65;1.63;;;;;;;;;;5107419;28;20035;-65
2022/05/29 10:21:15;;;;;;;11.02;1.80;;;;;;;;;;5096897;28;20089;-65
2022/05/29 10:23:47;;;;;;;8.65;1.33;;;;;;;;;;5102097;28;20460;-65
2022/05/29 10:26:17;;;;;;;11.48;1.75;;;;;;;;;;5105704;28;20088;-66
2022/05/29 10:28:43;;;;;;;12.60;2.28;;;;;;;;;;5124569;27;20039;-67
2022/05/29 10:31:13;;;;;;;11.30;2.10;;;;;;;;;;5103455;28;20080;-66
2022/05/29 10:33:39;;;;;;;10.40;2.20;;;;;;;;;;5104220;28;20393;-66
2022/05/29 10:36:05;;;;;;;13.20;2.25;;;;;;;;;;5098832;28;20105;-67
2022/05/29 10:38:31;;;;;;;13.65;1.85;;;;;;;;;;5102170;28;20074;-67
2022/05/29 10:40:59;;;;;;;11.80;1.95;;;;;;;;;;5105167;28;20292;-67
2022/05/29 10:43:35;;;;;;;9.93;1.73;;;;;;;;;;5099520;28;20192;-67
2022/05/29 10:46:06;;;;;;;10.73;1.55;;;;;;;;;;5096089;28;20058;-67
2022/05/29 10:48:41;;;;;;;9.32;1.60;;;;;;;;;;5103108;28;20051;-66
2022/05/29 10:51:12;;;;;;;10.27;2.05;;;;;;;;;;5104490;28;20036;-65
2022/05/29 10:53:45;;;;;;;9.07;1.48;;;;;;;;;;5101878;28;20047;-65
2022/05/29 10:56:15;;;;;;;7.45;1.58;;;;;;;;;;5104616;28;20103;-75
2022/05/29 10:58:47;;;;;;;8.27;1.83;;;;;;;;;;5100054;28;20052;-65
2022/05/29 11:04:32;;;;;;;8.95;1.55;;;;;;;;;;5100484;28;20077;-65
2022/05/29 11:07:22;;;;;;;10.10;2.08;;;;;;;;;;5104737;28;20387;-65
2022/05/29 11:09:51;;;;;;;12.02;2.67;;;;;;;;;;5101334;28;20350;-65
2022/05/29 11:12:17;;;;;;;10.07;2.10;;;;;;;;;;5104404;28;20134;-65
2022/05/29 11:14:50;;;;;;;16.00;3.47;;;;;;;;;;5106552;28;20364;-65
2022/05/29 11:17:24;;;;;;;12.70;2.47;;;;;;;;;;5102178;28;20516;-65
2022/05/29 11:20:01;;;;;;;13.77;2.30;;;;;;;;;;5098119;28;20067;-65
2022/05/29 11:22:36;;;;;;;14.60;2.58;;;;;;;;;;5103438;28;20512;-65
2022/05/29 11:25:10;;;;;;;9.85;1.90;;;;;;;;;;5100444;28;20032;-64
2022/05/29 11:27:49;;;;;;;12.38;2.03;;;;;;;;;;5102521;28;20048;-64
2022/05/29 11:30:19;;;;;;;11.13;1.80;;;;;;;;;;5104105;28;20114;-65
2022/05/29 11:32:51;;;;;;;11.00;1.77;;;;;;;;;;5103406;28;20127;-66
2022/05/29 11:35:18;;;;;;;9.73;2.33;;;;;;;;;;5105639;28;20474;-66
2022/05/29 11:38:00;;;;;;;10.93;2.58;;;;;;;;;;5103978;28;20390;-66
2022/05/29 11:40:30;;;;;;;13.43;2.30;;;;;;;;;;5105111;28;20040;-66
2022/05/29 11:43:02;;;;;;;10.82;2.05;;;;;;;;;;5094141;28;20123;-65
2022/05/29 11:51:07;;;;;;;14.65;2.40;;;;;;;;;;5082857;28;20131;-66
2022/05/29 11:51:16;;;;;;;17.42;1.80;;;;;;;;;;5081611;28;20051;-66
2022/05/29 11:53:51;;;;;;;11.20;1.48;;;;;;;;;;5082532;28;20044;-66
2022/05/29 11:56:23;;;;;;;9.50;1.60;;;;;;;;;;5049479;28;20064;-66
2022/05/29 11:58:53;;;;;;;14.70;2.05;;;;;;;;;;5064904;28;20190;-66
2022/05/29 12:01:24;;;;;;;10.52;1.65;;;;;;;;;;5081494;28;20483;-66
2022/05/29 12:03:58;;;;;;;8.85;1.65;;;;;;;;;;5084640;28;20048;-66
2022/05/29 12:06:30;;;;;;;9.10;1.77;;;;;;;;;;5062080;28;20040;-66
2022/05/29 12:08:57;;;;;;;10.55;1.75;;;;;;;;;;5075510;28;20041;-66
2022/05/29 12:11:29;;;;;;;7.85;1.33;;;;;;;;;;5078648;28;20506;-66
2022/05/29 12:13:56;;;;;;;6.25;1.52;;;;;;;;;;5080610;28;20406;-66
2022/05/29 12:16:27;;;;;;;10.50;1.75;;;;;;;;;;5059348;28;20044;-66
2022/05/29 12:18:54;;;;;;;6.20;1.90;;;;;;;;;;5058804;28;20052;-66
2022/05/29 12:21:25;;;;;;;9.98;1.77;;;;;;;;;;5077998;28;20043;-66
2022/05/29 12:23:53;;;;;;;8.63;2.03;;;;;;;;;;5059128;28;20039;-66
2022/05/29 12:26:23;;;;;;;12.25;1.77;;;;;;;;;;5061995;28;20129;-66
2022/05/29 12:28:52;;;;;;;7.53;1.50;;;;;;;;;;5080552;28;20368;-66
2022/05/29 12:31:21;;;;;;;11.52;2.30;;;;;;;;;;5080063;28;20075;-66
2022/05/29 12:33:48;;;;;;;14.52;2.33;;;;;;;;;;5074880;28;20073;-65
2022/05/29 12:36:15;;;;;;;6.82;1.70;;;;;;;;;;5079459;28;20050;-65
2022/05/29 12:38:50;;;;;;;8.18;1.90;;;;;;;;;;5077268;28;20457;-65
2022/05/29 12:41:22;;;;;;;9.85;1.25;;;;;;;;;;5076322;28;20055;-65
2022/05/29 12:44:09;;;;;;;8.77;1.90;;;;;;;;;;5079195;28;20100;-65
2022/05/29 12:46:48;;;;;;;10.45;2.25;;;;;;;;;;5082054;28;20051;-65
2022/05/29 12:49:37;;;;;;;10.70;2.45;;;;;;;;;;5085381;28;20040;-65
2022/05/29 12:52:11;;;;;;;13.50;1.75;;;;;;;;;;5060791;28;20468;-65
2022/05/29 12:54:37;;;;;;;;;;;;;;;;;;5080153;28;20538;-65
2022/05/29 12:57:06;;;;;;;14.95;2.33;;;;;;;;;;5065357;28;19928;-65
2022/05/29 12:59:53;;;;;;;11.00;2.83;;;;;;;;;;5063211;28;20048;-65
2022/05/29 13:02:28;;;;;;;12.13;2.80;;;;;;;;;;5078032;28;20040;-65
2022/05/29 13:05:02;;;;;;;12.50;2.22;;;;;;;;;;5078970;28;20044;-65
2022/05/29 13:07:32;;;;;;;15.77;2.63;;;;;;;;;;5081053;28;20071;-65
2022/05/29 13:10:05;;;;;;;14.65;2.00;;;;;;;;;;5061110;28;20059;-65
2022/05/29 13:12:35;;;;;;;13.50;2.47;;;;;;;;;;5082653;28;20089;-65
2022/05/29 13:15:04;;;;;;;9.13;1.95;;;;;;;;;;5062496;28;20063;-65
2022/05/29 13:17:32;;;;;;;17.23;2.50;;;;;;;;;;5078153;28;20033;-65
2022/05/29 13:20:01;;;;;;;14.02;2.38;;;;;;;;;;5060358;28;20055;-65
2022/05/29 13:22:46;;;;;;;14.05;2.45;;;;;;;;;;5080288;28;20387;-65
2022/05/29 13:25:13;;;;;;;10.40;1.90;;;;;;;;;;5083254;28;20253;-65
2022/05/29 13:27:40;;;;;;;13.73;2.70;;;;;;;;;;5083146;28;20032;-65
2022/05/29 13:30:09;;;;;;;15.55;2.67;;;;;;;;;;5064482;28;20116;-65
2022/05/29 13:32:36;;;;;;;22.10;2.60;;;;;;;;;;5066550;28;20440;-65
2022/05/29 13:35:05;;;;;;;13.57;2.70;;;;;;;;;;5085483;28;20119;-65
2022/05/29 13:37:32;;;;;;;16.33;2.33;;;;;;;;;;5080846;28;20036;-65
2022/05/29 13:40:01;;;;;;;16.98;2.15;;;;;;;;;;5055748;28;20471;-65
2022/05/29 13:42:29;;;;;;;9.57;2.45;;;;;;;;;;5084634;28;20040;-65
2022/05/29 13:44:56;;;;;;;10.30;1.67;;;;;;;;;;5062427;28;20055;-65
2022/05/29 13:47:23;;;;;;;15.20;2.83;;;;;;;;;;5077064;28;20123;-65
2022/05/29 13:49:51;;;;;;;14.40;2.65;;;;;;;;;;5056600;28;20121;-65
2022/05/29 13:52:22;;;;;;;13.68;2.45;;;;;;;;;;5062629;28;20127;-65
2022/05/29 13:55:09;;;;;;;19.23;2.53;;;;;;;;;;5062657;28;20052;-65
2022/05/29 14:06:20;;;;;;;20.83;2.63;;;;;;;;;;5076412;28;20036;-66
2022/05/29 14:08:50;;;;;;;16.70;3.25;;;;;;;;;;5059110;28;20108;-65
2022/05/29 14:11:16;;;;;;;8.90;2.05;;;;;;;;;;5063051;28;20149;-66
2022/05/29 14:13:45;;;;;;;16.52;3.20;;;;;;;;;;5063043;28;20036;-65
2022/05/29 14:16:29;;;;;;;11.90;2.42;;;;;;;;;;5079428;28;20037;-65
2022/05/29 14:19:11;;;;;;;10.57;1.73;;;;;;;;;;5073698;28;20040;-66
2022/05/29 14:21:40;;;;;;;13.35;2.38;;;;;;;;;;5070912;28;20032;-66
2022/05/29 14:24:27;;;;;;;12.75;2.55;;;;;;;;;;5074977;28;20041;-66
2022/05/29 14:27:03;;;;;;;9.07;1.52;;;;;;;;;;5064366;28;20047;-66
2022/05/29 14:29:37;;;;;;;13.65;2.25;;;;;;;;;;5041331;28;20048;-67
2022/05/29 14:32:09;;;;;;;12.68;2.55;;;;;;;;;;5073260;28;20048;-66
2022/05/29 14:34:38;;;;;;;14.93;2.78;;;;;;;;;;5075282;28;20075;-66
2022/05/29 14:37:06;;;;;;;11.77;2.42;;;;;;;;;;5064473;28;20130;-66
2022/05/29 14:39:37;;;;;;;10.38;2.38;;;;;;;;;;5054276;28;20044;-78
2022/05/29 14:42:08;;;;;;;10.95;1.88;;;;;;;;;;5056674;28;20037;-66
2022/05/29 14:44:41;;;;;;;12.02;2.17;;;;;;;;;;5056248;28;20506;-66
2022/05/29 14:47:11;;;;;;;10.38;2.22;;;;;;;;;;5056447;28;20036;-67
2022/05/29 14:49:47;;;;;;;12.55;1.98;;;;;;;;;;5063833;28;20040;-66
2022/05/29 14:52:18;;;;;;;13.45;2.90;;;;;;;;;;5080396;28;20364;-66
2022/05/29 14:54:46;;;;;;;13.48;3.08;;;;;;;;;;5077787;28;20154;-66
2022/05/29 14:57:18;;;;;;;13.80;2.78;;;;;;;;;;5057140;28;20040;-66
2022/05/29 14:59:45;;;;;;;12.00;2.17;;;;;;;;;;5080264;28;20111;-67
2022/05/29 15:02:17;;;;;;;9.90;2.00;;;;;;;;;;5079905;28;20048;-66
2022/05/29 15:04:44;;;;;;;12.85;2.38;;;;;;;;;;5084101;28;20127;-66
2022/05/29 15:12:45;;;;;;;9.45;2.33;;;;;;;;;;5084105;28;20048;-65
2022/05/29 15:15:19;;;;;;;14.20;2.13;;;;;;;;;;5074144;28;20115;-65
2022/05/29 15:17:45;;;;;;;13.38;3.30;;;;;;;;;;5063977;28;20060;-65
2022/05/29 15:25:52;;;;;;;11.55;2.25;;;;;;;;;;5084637;28;20066;-65
2022/05/29 15:28:19;;;;;;;16.10;2.42;;;;;;;;;;5067371;28;20076;-65
2022/05/29 15:30:46;;;;;;;9.88;2.47;;;;;;;;;;5066596;28;20119;-65
2022/05/29 15:33:13;;;;;;;11.25;2.55;;;;;;;;;;5075712;28;20102;-66
2022/05/29 15:35:56;;;;;;;16.13;2.78;;;;;;;;;;5082337;28;20040;-65